Главная страница
METAR-TAF:

METAR-TAF

Аэропорты :

Ташкент, Узбекистан

Международный аэропорт имени Ислама Каримова

широта: 41-16N, долгота: 069-16E, высота над уровнем моря: 489 м

Текущие метеонаблюдения

Эта сводка был подготовлена 24 минут назад, в 05:30 UTC
Ветер 4 Узел от восточно-юго-восточный, изменяющийся между восточный и юго-юго-восточный
Температура 8°C
Влажность 49%
Давление 1016 hPa
Видимость: 7000 м

METAR: UTTT 240530Z 12004KT 090V160 7000 NSC 08/M02 Q1016 R08R/CLRD70 NOSIG

Время: 10:54 (05:54 UTC)

Прогноз

Эта сводка был подготовлена 54 минут назад, в 05:00 UTC
Прогноз действительный с 24-го 06 UTC до 25-го 06 UTC
Ветер 10 Узел от южный
Видимость: 7000 м
временами
С 24-го 16 UTC до 25-го 03 UTC
Видимость: 3000 м
дымка, дым

TAF: UTTT 240500Z 2406/2506 17010KT 7000 NSC TEMPO 2416/2503 3000 BR FU

Метеонаблюдения и прогнозы для более 4000 аэропортов (сводки METAR и TAF).

Имеющиеся станции представлены на карте желтыми и красными точками.

Чтобы увидеть название станции, наведите на нее мышь.

Затем щелкните, чтобы увидеть метеонаблюдения и метеопрогнозы.

Управление картой: чтобы увеличить масштаб, щелкните зеленые кнопки с черным крестиком; чтобы уменьшить масштаб, щелкните зеленую кнопку с тире; для просмотра соседних карт щелкайте зеленые стрелки.


METAR-TAF: